KAKQ/AKQ METAR and TAF weather

Enter ICAO airport designator
Station Type Date Time Source
KAKQ METAR 2019/04/26 02:54 UTC NOAA

KAKQ 260254Z AUTO 00000KT 7SM CLR 20/17 A2984 RMK AO2 SLP103 T02000172 50005


Station Type Date Time Source
KAKQ Decoded METAR 2019/04/26 02:54 UTC NOAA

WAKEFIELD MUNICIPAL AIRPOR, VA, United States (KAKQ) 36-59N 077-00W 33M
Apr 25, 2019 - 10:54 PM EDT / 2019.04.26 0254 UTC
Wind: Calm:0
Visibility: 7 mile(s):0
Sky conditions: clear
Temperature: 68.0 F (20.0 C)
Dew Point: 63.0 F (17.2 C)
Relative Humidity: 83%
Pressure (altimeter): 29.84 in. Hg (1010 hPa)
Pressure tendency: 0.01 inches (0.5 hPa) higher than three hours ago
ob: KAKQ 260254Z AUTO 00000KT 7SM CLR 20/17 A2984 RMK AO2 SLP103 T02000172 50005
cycle: 3

Station Type Date Time Source
KAKQ TAF UTC NOAA

Error!

Example: see airport list